Time;durP1;ratioP1;P1;durP2;ratioP2;P2;SDS_P1;SDS_P2;PMS_P1;PMS_P2;Temp;Humidity;BMP_temperature;BMP_pressure;BME280_temperature;BME280_humidity;BME280_pressure;Samples;Min_cycle;Max_cycle;Signal;HPM_P1;HPM_P2
2023/04/11 00:00:57;;;;;;;9.07;7.47;;;6.60;99.90;;;;;;4893139;29;20217;-76
2023/04/11 00:03:27;;;;;;;8.73;7.03;;;6.70;99.90;;;;;;4897358;29;20195;-75
2023/04/11 00:05:56;;;;;;;9.27;7.00;;;6.70;99.90;;;;;;4898136;29;20280;-73
2023/04/11 00:08:24;;;;;;;7.93;7.10;;;6.70;99.90;;;;;;4892295;29;20214;-74
2023/04/11 00:10:52;;;;;;;7.70;6.67;;;6.70;99.90;;;;;;4878511;29;20214;-74
2023/04/11 00:13:22;;;;;;;8.43;6.93;;;6.80;99.90;;;;;;4878510;29;20214;-75
2023/04/11 00:15:54;;;;;;;8.03;6.70;;;6.80;99.90;;;;;;4878901;29;20206;-75
2023/04/11 00:18:24;;;;;;;8.30;6.50;;;6.80;99.90;;;;;;4878578;29;20326;-75
2023/04/11 00:20:55;;;;;;;8.80;6.60;;;6.80;99.90;;;;;;4878472;29;20222;-76
2023/04/11 00:23:23;;;;;;;7.13;6.27;;;6.80;99.90;;;;;;4877959;29;20210;-76
2023/04/11 00:25:51;;;;;;;8.23;6.47;;;6.80;99.90;;;;;;4878398;29;20222;-75
2023/04/11 00:28:19;;;;;;;7.07;6.20;;;6.90;99.90;;;;;;4878195;29;20218;-73
2023/04/11 00:30:46;;;;;;;6.77;5.80;;;6.90;99.90;;;;;;4878702;29;20210;-75
2023/04/11 00:33:15;;;;;;;6.33;5.33;;;6.90;99.90;;;;;;4878051;29;20214;-76
2023/04/11 00:35:43;;;;;;;6.20;5.43;;;6.90;99.90;;;;;;4877904;29;20222;-74
2023/04/11 00:38:13;;;;;;;6.60;5.10;;;6.90;99.90;;;;;;4878240;29;20214;-75
2023/04/11 00:40:41;;;;;;;6.33;5.37;;;7.00;99.90;;;;;;4880703;29;20214;-75
2023/04/11 00:43:09;;;;;;;5.97;5.10;;;7.10;99.90;;;;;;4881858;29;20238;-74
2023/04/11 00:45:37;;;;;;;6.40;5.10;;;7.10;99.90;;;;;;4881733;29;20309;-73
2023/04/11 00:48:06;;;;;;;6.43;4.53;;;7.20;99.90;;;;;;4881876;29;20215;-73
2023/04/11 00:50:39;;;;;;;5.83;4.43;;;7.30;99.90;;;;;;4881921;29;20308;-75
2023/04/11 00:53:09;;;;;;;4.93;4.30;;;7.30;99.90;;;;;;4881606;29;20255;-74
2023/04/11 00:55:38;;;;;;;5.40;4.20;;;7.40;99.90;;;;;;4881898;29;20210;-75
2023/04/11 00:58:07;;;;;;;5.30;4.60;;;7.40;99.90;;;;;;4881950;29;20579;-73
2023/04/11 01:00:37;;;;;;;4.87;4.20;;;7.50;99.90;;;;;;4897418;29;20210;-75
2023/04/11 01:03:05;;;;;;;5.63;4.27;;;7.60;99.90;;;;;;4900076;29;20241;-75
2023/04/11 01:05:35;;;;;;;4.57;3.80;;;7.70;99.90;;;;;;4900473;29;20210;-75
2023/04/11 01:08:04;;;;;;;4.37;3.50;;;7.80;99.90;;;;;;4896515;29;20222;-75
2023/04/11 01:10:32;;;;;;;4.53;3.40;;;7.90;99.90;;;;;;4882128;29;20349;-74
2023/04/11 01:13:02;;;;;;;3.63;3.10;;;8.10;99.90;;;;;;4881970;29;20606;-75
2023/04/11 01:15:30;;;;;;;3.97;2.90;;;8.20;99.90;;;;;;4882938;29;20309;-74
2023/04/11 01:18:00;;;;;;;3.73;3.20;;;8.40;99.90;;;;;;4887545;29;20669;-75
2023/04/11 01:20:30;;;;;;;3.67;3.10;;;8.40;99.90;;;;;;4897381;29;20222;-74
2023/04/11 01:23:00;;;;;;;3.37;2.87;;;8.70;99.90;;;;;;4897618;29;20234;-74
2023/04/11 01:25:30;;;;;;;3.17;2.87;;;8.70;99.90;;;;;;4892917;29;20210;-75
2023/04/11 01:27:58;;;;;;;2.90;2.60;;;8.90;99.90;;;;;;4893065;29;20262;-76
2023/04/11 01:30:26;;;;;;;3.23;2.90;;;8.90;99.90;;;;;;4892748;29;20282;-75
2023/04/11 01:32:57;;;;;;;3.40;2.97;;;9.00;99.90;;;;;;4889035;29;20214;-76
2023/04/11 01:35:25;;;;;;;3.23;2.73;;;9.10;99.90;;;;;;4886330;29;20221;-75
2023/04/11 01:37:55;;;;;;;4.37;3.00;;;9.10;99.90;;;;;;4892382;29;20220;-75
2023/04/11 01:40:23;;;;;;;3.57;3.20;;;9.10;99.90;;;;;;4896897;29;20214;-75
2023/04/11 01:42:53;;;;;;;3.10;2.80;;;9.20;99.90;;;;;;4888613;29;20222;-76
2023/04/11 01:45:22;;;;;;;3.53;2.93;;;9.10;99.90;;;;;;4892416;29;20286;-72
2023/04/11 01:47:51;;;;;;;3.40;3.00;;;9.10;99.90;;;;;;4901679;29;20216;-74
2023/04/11 01:50:19;;;;;;;3.20;2.90;;;9.10;99.90;;;;;;4926696;29;20225;-74
2023/04/11 01:52:48;;;;;;;3.40;2.90;;;9.00;99.90;;;;;;4907905;29;20702;-75
2023/04/11 01:55:16;;;;;;;3.60;3.03;;;9.00;99.90;;;;;;4899695;29;20220;-75
2023/04/11 01:57:45;;;;;;;3.10;2.80;;;9.00;99.90;;;;;;4899912;29;20284;-75
2023/04/11 02:00:15;;;;;;;3.47;3.07;;;9.00;99.90;;;;;;4898082;29;20213;-75
2023/04/11 02:02:43;;;;;;;3.50;3.20;;;8.90;99.90;;;;;;4880852;29;20693;-76
2023/04/11 02:05:12;;;;;;;4.07;3.17;;;8.90;99.90;;;;;;4881257;29;20218;-76
2023/04/11 02:07:40;;;;;;;4.23;3.07;;;8.80;99.90;;;;;;4893855;29;20210;-75
2023/04/11 02:10:09;;;;;;;4.20;3.40;;;8.80;99.90;;;;;;4890223;29;20246;-74
2023/04/11 02:12:37;;;;;;;3.93;3.10;;;8.80;99.90;;;;;;4880146;29;20685;-75
2023/04/11 02:15:10;;;;;;;3.30;3.00;;;8.80;99.90;;;;;;4880644;29;20681;-76
2023/04/11 02:17:43;;;;;;;4.50;3.60;;;8.70;99.90;;;;;;4881713;29;20301;-74
2023/04/11 02:20:13;;;;;;;3.50;3.20;;;8.80;99.90;;;;;;4898983;29;20228;-74
2023/04/11 02:22:41;;;;;;;3.50;3.03;;;8.70;99.90;;;;;;4898753;29;20237;-74
2023/04/11 02:25:10;;;;;;;3.40;3.00;;;8.80;99.90;;;;;;4898857;29;20300;-73
2023/04/11 02:27:37;;;;;;;4.37;3.20;;;8.80;99.90;;;;;;4890982;29;20206;-75
2023/04/11 02:30:07;;;;;;;4.00;3.03;;;8.90;99.90;;;;;;4879948;29;20214;-74
2023/04/11 02:32:37;;;;;;;3.60;2.90;;;8.90;99.90;;;;;;4879626;29;20683;-75
2023/04/11 02:35:07;;;;;;;3.70;3.00;;;9.00;99.90;;;;;;4879638;29;20760;-76
2023/04/11 02:37:35;;;;;;;3.70;3.00;;;9.00;99.90;;;;;;4880258;29;20214;-75
2023/04/11 02:40:05;;;;;;;4.00;2.67;;;9.00;99.90;;;;;;4879942;29;20246;-75
2023/04/11 02:42:33;;;;;;;3.30;3.00;;;9.00;99.90;;;;;;4879582;29;20244;-75
2023/04/11 02:45:02;;;;;;;3.27;2.80;;;9.10;99.90;;;;;;4898356;29;20213;-75
2023/04/11 02:47:30;;;;;;;4.83;2.90;;;9.10;99.90;;;;;;4898941;29;20214;-74
2023/04/11 02:49:58;;;;;;;3.33;2.90;;;9.10;99.90;;;;;;4898438;29;20676;-74
2023/04/11 02:52:27;;;;;;;3.57;2.73;;;9.20;99.90;;;;;;4896964;29;20236;-76
2023/04/11 02:54:55;;;;;;;3.70;2.90;;;9.20;99.90;;;;;;4898436;29;20220;-75
2023/04/11 02:57:23;;;;;;;3.27;2.67;;;9.20;99.90;;;;;;4897897;29;20209;-75
2023/04/11 02:59:51;;;;;;;3.13;2.80;;;9.30;99.90;;;;;;4898572;29;20308;-74
2023/04/11 03:02:19;;;;;;;2.63;2.43;;;9.20;99.90;;;;;;4887540;29;20327;-75
2023/04/11 03:04:48;;;;;;;3.03;2.27;;;9.20;99.90;;;;;;4902099;29;20334;-75
2023/04/11 03:07:15;;;;;;;5.83;2.10;;;9.50;99.90;;;;;;4898578;29;20220;-75
2023/04/11 03:09:45;;;;;;;4.07;2.10;;;9.60;99.90;;;;;;4885296;29;20225;-76
2023/04/11 03:12:13;;;;;;;4.00;1.90;;;9.70;99.90;;;;;;4879065;29;20214;-74
2023/04/11 03:14:41;;;;;;;2.77;1.60;;;9.80;99.90;;;;;;4879456;29;20207;-74
2023/04/11 03:17:12;;;;;;;3.40;1.90;;;10.00;99.90;;;;;;4879784;29;20210;-73
2023/04/11 03:19:40;;;;;;;2.07;1.87;;;10.00;99.90;;;;;;4897904;29;20210;-73
2023/04/11 03:22:11;;;;;;;2.70;2.00;;;10.00;99.90;;;;;;4893467;29;20642;-75
2023/04/11 03:24:39;;;;;;;2.10;1.87;;;10.10;99.90;;;;;;4878853;29;20317;-74
2023/04/11 03:27:09;;;;;;;2.60;2.00;;;10.00;99.90;;;;;;4890182;29;20274;-74
2023/04/11 03:29:37;;;;;;;2.93;1.90;;;10.00;99.90;;;;;;4879562;29;20214;-74
2023/04/11 03:32:05;;;;;;;2.37;2.17;;;9.90;99.90;;;;;;4898307;29;20218;-74
2023/04/11 03:34:34;;;;;;;4.53;2.23;;;9.80;99.90;;;;;;4898197;29;20669;-74
2023/04/11 03:37:02;;;;;;;2.70;2.30;;;9.80;99.90;;;;;;4897835;29;20682;-75
2023/04/11 03:39:30;;;;;;;2.70;2.07;;;9.80;99.90;;;;;;4883895;29;20225;-75
2023/04/11 03:41:58;;;;;;;2.37;2.07;;;9.70;99.90;;;;;;4878619;29;20228;-73
2023/04/11 03:44:28;;;;;;;2.53;2.10;;;9.70;99.90;;;;;;4879155;29;20269;-74
2023/04/11 03:46:56;;;;;;;3.40;2.03;;;9.70;99.90;;;;;;4879027;29;20249;-74
2023/04/11 03:49:24;;;;;;;2.97;2.10;;;9.60;99.90;;;;;;4897528;29;20224;-74
2023/04/11 03:51:52;;;;;;;4.20;2.30;;;9.50;99.90;;;;;;4897404;29;20218;-72
2023/04/11 03:54:20;;;;;;;3.10;1.90;;;9.50;99.90;;;;;;4899148;29;20214;-75
2023/04/11 03:56:48;;;;;;;4.53;2.00;;;9.50;99.90;;;;;;4882247;29;20220;-74
2023/04/11 03:59:17;;;;;;;3.37;1.77;;;9.60;99.90;;;;;;4878520;29;20217;-74
2023/04/11 04:01:46;;;;;;;2.60;1.70;;;9.70;99.90;;;;;;4892527;29;20257;-76
2023/04/11 04:04:14;;;;;;;3.10;1.80;;;10.00;99.90;;;;;;4895109;29;20240;-75
2023/04/11 04:06:44;;;;;;;2.07;1.70;;;10.00;99.90;;;;;;4878442;29;20220;-77
2023/04/11 04:09:13;;;;;;;3.03;1.83;;;10.00;99.90;;;;;;4878576;29;20605;-76
2023/04/11 04:11:42;;;;;;;3.67;1.80;;;10.00;99.90;;;;;;4882543;29;20246;-75
2023/04/11 04:14:10;;;;;;;3.17;1.90;;;9.90;99.90;;;;;;4882634;29;20238;-75
2023/04/11 04:16:38;;;;;;;2.70;2.00;;;9.90;99.90;;;;;;4878394;29;20313;-76
2023/04/11 04:19:07;;;;;;;3.00;2.00;;;9.90;99.90;;;;;;4878436;29;20225;-75
2023/04/11 04:21:36;;;;;;;1.90;1.80;;;9.80;99.90;;;;;;4878428;29;20210;-76
2023/04/11 04:24:06;;;;;;;3.00;2.10;;;9.80;99.90;;;;;;4877553;29;20226;-75
2023/04/11 04:26:36;;;;;;;3.50;1.90;;;9.80;99.90;;;;;;4878205;29;20220;-75
2023/04/11 04:29:05;;;;;;;3.77;1.90;;;9.70;99.90;;;;;;4878093;29;20567;-74
2023/04/11 04:31:33;;;;;;;2.53;1.90;;;9.70;99.90;;;;;;4878071;29;20210;-75
2023/04/11 04:34:07;;;;;;;2.33;1.97;;;9.70;99.90;;;;;;4877482;29;20218;-74
2023/04/11 04:36:45;;;;;;;4.57;2.20;;;9.70;99.90;;;;;;4878415;29;20217;-75
2023/04/11 04:39:18;;;;;;;2.67;2.00;;;9.70;99.90;;;;;;4878428;29;20202;-74
2023/04/11 04:41:47;;;;;;;3.83;2.10;;;9.60;99.90;;;;;;4878813;29;20236;-73
2023/04/11 04:44:16;;;;;;;4.37;1.90;;;9.60;99.90;;;;;;4878199;29;20233;-75
2023/04/11 04:46:44;;;;;;;3.47;2.20;;;9.60;99.90;;;;;;4878746;29;20677;-74
2023/04/11 04:49:12;;;;;;;3.83;2.07;;;9.50;99.90;;;;;;4878280;29;20222;-75
2023/04/11 04:51:41;;;;;;;3.17;2.13;;;9.50;99.90;;;;;;4878219;29;20214;-75
2023/04/11 04:54:09;;;;;;;2.80;2.10;;;9.50;99.90;;;;;;4877660;29;20210;-76
2023/04/11 04:56:38;;;;;;;4.80;2.10;;;9.40;99.90;;;;;;4878243;29;20245;-74
2023/04/11 04:59:06;;;;;;;4.03;2.37;;;9.50;99.90;;;;;;4883191;29;20210;-74
2023/04/11 05:01:38;;;;;;;5.63;2.30;;;9.40;99.90;;;;;;4896168;29;20241;-74
2023/04/11 05:04:07;;;;;;;4.70;2.20;;;9.40;99.90;;;;;;4896521;29;20314;-75
2023/04/11 05:06:35;;;;;;;2.93;1.90;;;9.40;99.90;;;;;;4893392;29;20697;-76
2023/04/11 05:09:05;;;;;;;3.90;1.97;;;9.50;99.90;;;;;;4878916;29;20218;-75
2023/04/11 05:11:33;;;;;;;4.83;1.70;;;9.70;99.90;;;;;;4878188;29;20210;-74
2023/04/11 05:14:02;;;;;;;4.20;1.77;;;10.20;99.90;;;;;;4877339;29;20568;-74
2023/04/11 05:16:30;;;;;;;2.43;1.67;;;10.30;99.90;;;;;;4877984;29;20577;-75
2023/04/11 05:18:58;;;;;;;2.53;1.70;;;10.60;99.90;;;;;;4877827;29;20246;-74
2023/04/11 05:21:26;;;;;;;2.53;1.47;;;10.80;99.90;;;;;;4877560;29;20214;-75
2023/04/11 05:23:55;;;;;;;2.10;1.50;;;10.80;99.90;;;;;;4894201;29;20244;-75
2023/04/11 05:26:25;;;;;;;2.47;1.70;;;11.00;99.90;;;;;;4897918;29;20577;-75
2023/04/11 05:28:53;;;;;;;3.13;1.60;;;11.00;99.90;;;;;;4908222;29;20773;-75
2023/04/11 05:31:21;;;;;;;2.97;1.60;;;11.00;99.90;;;;;;4888931;29;20214;-77
2023/04/11 05:33:49;;;;;;;4.23;1.63;;;11.00;99.90;;;;;;4880728;29;20222;-77
2023/04/11 05:36:18;;;;;;;2.90;1.70;;;11.00;99.90;;;;;;4881538;29;20304;-76
2023/04/11 05:38:46;;;;;;;3.37;1.60;;;11.10;99.90;;;;;;4881266;29;20305;-76
2023/04/11 05:41:14;;;;;;;3.07;1.63;;;11.10;99.90;;;;;;4881440;29;20214;-74
2023/04/11 05:43:44;;;;;;;3.47;1.60;;;11.10;99.90;;;;;;4880752;29;20578;-78
2023/04/11 05:46:13;;;;;;;3.30;1.90;;;11.20;99.90;;;;;;4881135;29;20214;-74
2023/04/11 05:48:41;;;;;;;4.03;1.70;;;11.30;99.90;;;;;;4881145;29;20222;-75
2023/04/11 05:51:09;;;;;;;2.43;1.57;;;11.20;99.90;;;;;;4881137;29;20225;-76
2023/04/11 05:53:37;;;;;;;5.70;2.60;;;11.20;99.90;;;;;;4881034;29;20309;-74
2023/04/11 05:56:06;;;;;;;5.97;2.30;;;11.10;99.90;;;;;;4887680;29;20301;-76
2023/04/11 05:58:35;;;;;;;7.27;2.97;;;11.00;99.90;;;;;;4885963;29;20214;-76
2023/04/11 06:01:06;;;;;;;5.23;2.23;;;11.00;99.90;;;;;;4880255;29;20252;-76
2023/04/11 06:03:34;;;;;;;2.43;1.87;;;10.90;99.90;;;;;;4880660;29;20512;-75
2023/04/11 06:06:02;;;;;;;2.43;2.00;;;10.90;99.90;;;;;;4880349;29;20294;-75
2023/04/11 06:08:31;;;;;;;2.33;1.93;;;10.90;99.90;;;;;;4880703;29;20645;-73
2023/04/11 06:10:59;;;;;;;3.27;2.20;;;10.90;99.90;;;;;;4880879;29;20211;-75
2023/04/11 06:13:27;;;;;;;2.37;1.93;;;10.90;99.90;;;;;;4880696;29;20369;-74
2023/04/11 06:15:55;;;;;;;6.17;2.07;;;10.80;99.90;;;;;;4880685;29;20265;-74
2023/04/11 06:18:25;;;;;;;3.07;2.27;;;10.70;99.90;;;;;;4880517;29;20660;-75
2023/04/11 06:20:53;;;;;;;5.20;2.30;;;10.60;99.90;;;;;;4881149;29;20218;-76
2023/04/11 06:23:21;;;;;;;4.13;2.33;;;10.60;99.90;;;;;;4881356;29;20222;-74
2023/04/11 06:25:51;;;;;;;3.10;2.20;;;10.50;99.90;;;;;;4894129;29;20221;-73
2023/04/11 06:28:19;;;;;;;4.57;2.40;;;10.50;99.90;;;;;;4888786;29;20270;-76
2023/04/11 06:30:48;;;;;;;2.77;2.10;;;10.40;99.90;;;;;;4880484;29;20257;-75
2023/04/11 06:33:16;;;;;;;2.23;2.03;;;10.40;99.90;;;;;;4880452;29;20221;-75
2023/04/11 06:35:45;;;;;;;3.77;2.20;;;10.40;99.90;;;;;;4880457;29;20614;-73
2023/04/11 06:38:14;;;;;;;3.27;2.23;;;10.30;99.90;;;;;;4879744;29;20432;-74
2023/04/11 06:40:42;;;;;;;2.27;2.00;;;10.40;99.90;;;;;;4880222;29;20589;-75
2023/04/11 06:43:10;;;;;;;3.37;2.30;;;10.30;99.90;;;;;;4879754;29;20214;-74
2023/04/11 06:45:40;;;;;;;2.80;2.20;;;10.30;99.90;;;;;;4880059;29;20375;-75
2023/04/11 06:48:08;;;;;;;3.47;2.07;;;10.30;99.90;;;;;;4880292;29;20632;-77
2023/04/11 06:50:38;;;;;;;3.73;2.40;;;10.30;99.90;;;;;;4879938;29;20736;-74
2023/04/11 06:53:07;;;;;;;4.93;2.10;;;10.20;99.90;;;;;;4880130;29;20245;-76
2023/04/11 06:55:36;;;;;;;3.43;2.30;;;10.20;99.90;;;;;;4879789;29;20657;-76
2023/04/11 06:58:04;;;;;;;4.40;2.70;;;10.20;99.90;;;;;;4898252;29;20217;-75
2023/04/11 07:00:32;;;;;;;4.97;2.70;;;10.10;99.90;;;;;;4898753;29;20300;-76
2023/04/11 07:03:00;;;;;;;4.93;2.50;;;10.00;99.90;;;;;;4896966;29;20328;-77
2023/04/11 07:05:29;;;;;;;3.83;2.90;;;10.00;99.90;;;;;;4898665;29;20233;-77
2023/04/11 07:07:57;;;;;;;5.17;2.90;;;9.90;99.90;;;;;;4898458;29;20233;-77
2023/04/11 07:10:26;;;;;;;4.93;3.10;;;9.80;99.90;;;;;;4889200;29;20285;-77
2023/04/11 07:12:55;;;;;;;6.83;3.50;;;9.70;99.90;;;;;;4879452;29;20218;-78
2023/04/11 07:15:23;;;;;;;3.70;3.13;;;9.60;99.90;;;;;;4879970;29;20237;-77
2023/04/11 07:17:52;;;;;;;4.63;3.13;;;9.50;99.90;;;;;;4880090;29;20301;-76
2023/04/11 07:20:20;;;;;;;5.43;3.30;;;9.50;99.90;;;;;;4879770;29;20210;-76
2023/04/11 07:22:48;;;;;;;4.23;3.40;;;9.50;99.90;;;;;;4879641;29;20225;-75
2023/04/11 07:25:17;;;;;;;5.60;3.20;;;9.50;99.90;;;;;;4879459;29;20236;-76
2023/04/11 07:27:48;;;;;;;4.63;3.70;;;9.40;99.90;;;;;;4880569;29;20236;-75
2023/04/11 07:30:16;;;;;;;4.33;3.90;;;9.40;99.90;;;;;;4879536;29;20636;-77
2023/04/11 07:32:45;;;;;;;5.20;3.73;;;9.40;99.90;;;;;;4878945;29;20214;-75
2023/04/11 07:35:13;;;;;;;10.43;3.73;;;9.40;99.90;;;;;;4878987;29;20678;-77
2023/04/11 07:37:41;;;;;;;4.57;3.70;;;9.40;99.90;;;;;;4879132;29;20213;-78
2023/04/11 07:40:10;;;;;;;4.23;3.80;;;9.40;99.90;;;;;;4880782;29;20218;-78
2023/04/11 07:42:39;;;;;;;3.77;3.17;;;9.40;99.90;;;;;;4882250;29;20224;-76
2023/04/11 07:45:09;;;;;;;7.60;3.57;;;9.30;99.90;;;;;;4879660;29;20577;-71
2023/04/11 07:47:37;;;;;;;5.27;3.90;;;9.30;99.90;;;;;;4879503;29;20224;-76
2023/04/11 07:50:06;;;;;;;4.70;3.00;;;9.20;99.90;;;;;;4879218;29;20218;-78
2023/04/11 07:52:35;;;;;;;3.90;2.83;;;9.10;99.90;;;;;;4878944;29;20638;-77
2023/04/11 07:55:04;;;;;;;4.70;3.67;;;9.10;99.90;;;;;;4881129;29;20230;-77
2023/04/11 07:57:32;;;;;;;3.40;2.87;;;9.10;99.90;;;;;;4879428;29;20744;-78
2023/04/11 08:00:00;;;;;;;4.90;3.07;;;9.00;99.90;;;;;;4880301;29;20245;-77
2023/04/11 08:02:31;;;;;;;4.57;2.97;;;8.90;99.90;;;;;;4879349;29;20309;-79
2023/04/11 08:05:00;;;;;;;4.73;3.00;;;8.90;99.90;;;;;;4879633;29;20218;-78
2023/04/11 08:07:29;;;;;;;5.63;2.80;;;9.00;99.90;;;;;;4879733;29;20226;-78
2023/04/11 08:09:57;;;;;;;3.67;2.47;;;9.00;99.90;;;;;;4879638;29;20823;-76
2023/04/11 08:12:25;;;;;;;2.87;1.90;;;9.00;99.90;;;;;;4878614;29;20241;-75
2023/04/11 08:14:53;;;;;;;3.43;1.60;;;9.00;99.90;;;;;;4887427;29;20218;-75
2023/04/11 08:17:27;;;;;;;2.43;1.40;;;9.00;99.90;;;;;;4883834;29;20680;-74
2023/04/11 08:19:58;;;;;;;2.80;1.37;;;9.00;99.90;;;;;;4892989;29;20214;-73
2023/04/11 08:22:29;;;;;;;1.33;1.10;;;9.00;99.90;;;;;;4888869;29;20285;-76
2023/04/11 08:24:57;;;;;;;1.83;1.20;;;9.00;99.90;;;;;;4881762;29;20317;-77
2023/04/11 08:27:26;;;;;;;2.77;1.13;;;9.00;99.90;;;;;;4881169;29;20326;-75
2023/04/11 08:29:55;;;;;;;3.27;1.43;;;8.90;99.90;;;;;;4906643;29;20221;-75
2023/04/11 08:32:23;;;;;;;2.83;1.50;;;8.90;99.90;;;;;;4902840;29;20225;-76
2023/04/11 08:34:51;;;;;;;3.43;1.20;;;8.90;99.90;;;;;;4898599;29;20220;-75
2023/04/11 08:37:21;;;;;;;2.43;1.10;;;9.00;99.90;;;;;;4889823;29;20224;-76
2023/04/11 08:39:49;;;;;;;1.80;0.83;;;9.20;99.90;;;;;;4878880;29;20249;-76
2023/04/11 08:42:24;;;;;;;1.07;0.77;;;9.30;99.90;;;;;;4878451;29;20220;-76
2023/04/11 08:44:54;;;;;;;1.10;0.90;;;9.30;99.90;;;;;;4878683;29;20307;-76
2023/04/11 08:47:22;;;;;;;1.17;0.90;;;9.40;99.90;;;;;;4878316;29;20461;-78
2023/04/11 08:49:53;;;;;;;1.53;0.90;;;9.60;99.90;;;;;;4879180;29;20217;-75
2023/04/11 08:52:24;;;;;;;1.40;1.27;;;9.70;99.90;;;;;;4878676;29;20237;-78
2023/04/11 08:54:53;;;;;;;3.43;1.00;;;10.00;99.90;;;;;;4891830;29;20209;-77
2023/04/11 08:57:26;;;;;;;2.67;1.17;;;10.20;99.90;;;;;;4878679;29;20237;-77
2023/04/11 08:59:56;;;;;;;0.80;0.80;;;10.40;99.90;;;;;;4878453;29;20231;-75
2023/04/11 09:02:24;;;;;;;1.80;0.93;;;10.30;99.90;;;;;;4880540;29;20238;-78
2023/04/11 09:04:53;;;;;;;4.00;1.07;;;10.10;99.90;;;;;;4881962;29;20249;-76
2023/04/11 09:07:22;;;;;;;2.00;1.13;;;9.90;99.90;;;;;;4881417;29;20723;-75
2023/04/11 09:09:51;;;;;;;1.43;0.90;;;9.80;99.90;;;;;;4882165;29;20300;-78
2023/04/11 09:12:28;;;;;;;1.37;0.80;;;9.60;99.90;;;;;;4880855;29;20403;-77
2023/04/11 09:14:56;;;;;;;2.47;1.00;;;9.80;99.90;;;;;;4881891;29;20190;-77
2023/04/11 09:17:24;;;;;;;3.17;1.33;;;9.80;99.90;;;;;;4882110;29;20210;-78
2023/04/11 09:19:53;;;;;;;1.70;0.77;;;9.90;99.90;;;;;;4882335;29;20218;-76
2023/04/11 09:22:35;;;;;;;1.00;0.90;;;9.90;99.90;;;;;;4881695;29;20238;-74
2023/04/11 09:25:04;;;;;;;1.57;1.03;;;9.80;99.90;;;;;;4882917;29;20202;-77
2023/04/11 09:27:33;;;;;;;1.67;0.90;;;9.80;99.90;;;;;;4882492;29;20639;-76
2023/04/11 09:30:02;;;;;;;1.97;0.87;;;9.70;99.90;;;;;;4895975;29;20605;-75
2023/04/11 09:32:32;;;;;;;2.17;1.23;;;9.80;99.90;;;;;;4900355;29;20216;-76
2023/04/11 09:35:11;;;;;;;1.33;1.03;;;9.80;99.90;;;;;;4900645;29;20220;-75
2023/04/11 09:37:45;;;;;;;2.27;1.40;;;9.80;99.90;;;;;;4889162;29;20206;-76
2023/04/11 09:40:15;;;;;;;2.40;1.50;;;9.60;99.90;;;;;;4881847;29;20298;-77
2023/04/11 09:42:48;;;;;;;3.70;1.60;;;9.50;99.90;;;;;;4881293;29;20214;-77
2023/04/11 09:45:21;;;;;;;1.53;1.00;;;9.50;99.90;;;;;;4881875;29;20221;-76
2023/04/11 09:47:51;;;;;;;1.40;1.00;;;9.60;99.90;;;;;;4881412;29;20248;-76
2023/04/11 09:50:20;;;;;;;1.10;0.90;;;9.70;99.90;;;;;;4881622;29;20669;-76
2023/04/11 09:52:51;;;;;;;2.50;1.03;;;10.00;99.90;;;;;;4889178;29;20209;-76
2023/04/11 09:55:21;;;;;;;0.90;0.80;;;10.20;99.90;;;;;;4881842;29;20198;-78
2023/04/11 09:57:50;;;;;;;1.77;0.80;;;10.40;99.90;;;;;;4881264;29;20210;-77
2023/04/11 10:00:21;;;;;;;1.93;0.90;;;10.50;99.90;;;;;;4881640;29;20210;-74
2023/04/11 10:02:51;;;;;;;2.03;0.97;;;10.30;99.90;;;;;;4887261;29;20610;-75
2023/04/11 10:05:24;;;;;;;2.33;1.30;;;10.20;99.90;;;;;;4881989;29;20216;-74
2023/04/11 10:07:59;;;;;;;2.30;1.17;;;10.30;99.90;;;;;;4881664;29;20226;-75
2023/04/11 10:10:27;;;;;;;1.50;0.97;;;10.40;99.90;;;;;;4881368;29;20232;-76
2023/04/11 10:12:56;;;;;;;3.73;1.37;;;10.50;99.90;;;;;;4880522;29;20669;-74
2023/04/11 10:15:24;;;;;;;2.43;1.10;;;10.40;99.90;;;;;;4881804;29;20210;-75
2023/04/11 10:18:09;;;;;;;1.50;1.30;;;10.50;99.90;;;;;;4881423;29;20249;-76
2023/04/11 10:20:45;;;;;;;2.70;1.27;;;10.40;99.90;;;;;;4880962;29;20218;-75
2023/04/11 10:23:16;;;;;;;3.53;1.30;;;10.30;99.90;;;;;;4880701;29;20214;-75
2023/04/11 10:25:53;;;;;;;2.83;1.40;;;10.10;99.90;;;;;;4882381;29;20301;-75
2023/04/11 10:28:34;;;;;;;3.00;1.20;;;10.10;99.90;;;;;;4882485;29;20280;-76
2023/04/11 10:31:03;;;;;;;2.23;1.10;;;10.20;99.90;;;;;;4882181;29;20206;-75
2023/04/11 10:33:34;;;;;;;2.07;1.13;;;10.00;99.90;;;;;;4883262;29;20218;-72
2023/04/11 10:36:05;;;;;;;3.17;1.13;;;10.00;99.90;;;;;;4885744;29;20221;-74
2023/04/11 10:38:50;;;;;;;3.40;1.30;;;9.90;99.90;;;;;;4886010;29;20195;-74
2023/04/11 10:41:30;;;;;;;3.83;1.30;;;9.90;99.90;;;;;;4884134;29;20262;-75
2023/04/11 10:44:13;;;;;;;2.00;1.10;;;9.90;99.90;;;;;;4882784;29;20224;-76
2023/04/11 10:46:47;;;;;;;4.90;1.50;;;9.90;99.90;;;;;;4881796;29;20430;-76
2023/04/11 10:49:36;;;;;;;3.00;1.37;;;9.90;99.90;;;;;;4882210;29;20257;-75
2023/04/11 10:52:21;;;;;;;3.57;1.50;;;10.00;99.90;;;;;;4899164;29;20210;-75
2023/04/11 10:54:53;;;;;;;3.13;1.40;;;10.30;99.90;;;;;;4896506;29;20213;-75
2023/04/11 10:57:22;;;;;;;2.67;1.27;;;10.60;99.90;;;;;;4888082;29;20614;-75
2023/04/11 11:00:00;;;;;;;3.43;1.17;;;10.80;99.90;;;;;;4890407;29;20277;-76
2023/04/11 11:02:38;;;;;;;4.47;1.40;;;11.00;99.90;;;;;;4888809;29;20325;-75
2023/04/11 11:05:21;;;;;;;2.77;1.30;;;11.60;99.90;;;;;;4881386;29;20222;-77
2023/04/11 11:07:50;;;;;;;3.17;1.30;;;12.10;99.90;;;;;;4890449;29;20243;-76
2023/04/11 11:10:39;;;;;;;4.00;1.20;;;12.80;99.90;;;;;;4917809;29;20216;-73
2023/04/11 11:13:08;;;;;;;2.50;1.30;;;13.80;99.90;;;;;;4886569;29;20218;-75
2023/04/11 11:15:37;;;;;;;3.37;1.20;;;14.70;99.90;;;;;;4880143;29;20219;-76
2023/04/11 11:18:08;;;;;;;2.73;1.20;;;14.70;99.90;;;;;;4880444;29;20221;-77
2023/04/11 11:20:37;;;;;;;2.73;1.20;;;15.20;99.90;;;;;;4890222;29;20217;-77
2023/04/11 11:23:07;;;;;;;3.13;0.90;;;15.30;99.90;;;;;;4898609;29;20205;-76
2023/04/11 11:25:35;;;;;;;3.63;1.47;;;15.30;99.90;;;;;;4898375;29;20220;-75
2023/04/11 11:28:07;;;;;;;3.03;1.40;;;15.10;99.90;;;;;;4898281;29;20590;-75
2023/04/11 11:30:36;;;;;;;3.70;1.40;;;14.80;99.90;;;;;;4885951;29;20214;-75
2023/04/11 11:33:17;;;;;;;3.30;1.30;;;14.20;99.90;;;;;;4879609;29;20359;-75
2023/04/11 11:35:51;;;;;;;3.90;1.40;;;13.50;99.90;;;;;;4879494;29;20313;-76
2023/04/11 11:38:21;;;;;;;3.93;1.70;;;13.40;99.90;;;;;;4879368;29;20209;-75
2023/04/11 11:40:50;;;;;;;7.83;1.77;;;13.10;99.90;;;;;;4879574;29;20305;-75
2023/04/11 11:43:19;;;;;;;2.73;1.20;;;12.90;99.90;;;;;;4878976;29;20215;-76
2023/04/11 11:46:06;;;;;;;3.03;1.53;;;12.70;99.90;;;;;;4879457;29;20313;-74
2023/04/11 11:48:36;;;;;;;4.03;1.30;;;12.80;99.90;;;;;;4879766;29;20234;-76
2023/04/11 11:51:05;;;;;;;2.33;1.27;;;12.80;99.90;;;;;;4879021;29;20270;-78
2023/04/11 11:53:33;;;;;;;3.90;1.50;;;12.70;99.90;;;;;;4879263;29;20225;-75
2023/04/11 11:56:12;;;;;;;3.67;1.40;;;12.30;99.90;;;;;;4879442;29;20271;-76
2023/04/11 11:58:45;;;;;;;2.20;1.30;;;12.30;99.90;;;;;;4879696;29;20244;-75
2023/04/11 12:01:17;;;;;;;2.67;1.27;;;12.20;99.90;;;;;;4878950;29;20226;-76
2023/04/11 12:03:49;;;;;;;2.47;1.20;;;12.20;99.90;;;;;;4878969;29;20282;-75
2023/04/11 12:06:19;;;;;;;2.50;1.40;;;12.20;99.90;;;;;;4879585;29;20194;-75
2023/04/11 12:08:50;;;;;;;3.53;1.90;;;12.50;99.90;;;;;;4878586;29;20708;-74
2023/04/11 12:11:18;;;;;;;3.23;1.53;;;12.80;99.90;;;;;;4878690;29;20273;-74
2023/04/11 12:13:52;;;;;;;2.30;1.30;;;12.70;99.90;;;;;;4878822;29;20331;-74
2023/04/11 12:16:22;;;;;;;2.27;1.20;;;12.60;99.90;;;;;;4879350;29;20206;-76
2023/04/11 12:18:51;;;;;;;2.50;1.27;;;12.70;99.90;;;;;;4881223;29;20238;-75
2023/04/11 12:21:20;;;;;;;2.73;1.17;;;12.90;99.90;;;;;;4878903;29;20257;-75
2023/04/11 12:23:48;;;;;;;2.90;1.40;;;12.80;99.90;;;;;;4878526;29;20633;-76
2023/04/11 12:26:19;;;;;;;3.50;1.17;;;13.10;99.90;;;;;;4878883;29;20267;-77
2023/04/11 12:28:49;;;;;;;3.60;1.30;;;13.10;99.90;;;;;;4878844;29;20222;-75
2023/04/11 12:31:20;;;;;;;3.27;1.30;;;12.90;99.90;;;;;;4879875;29;20252;-75
2023/04/11 12:33:48;;;;;;;4.07;1.53;;;12.60;99.90;;;;;;4878992;29;20307;-73
2023/04/11 12:36:16;;;;;;;3.13;1.30;;;12.70;99.90;;;;;;4879959;29;20666;-76
2023/04/11 12:38:44;;;;;;;4.03;1.57;;;12.60;99.90;;;;;;4883624;29;20309;-75
2023/04/11 12:41:12;;;;;;;2.93;1.10;;;12.90;99.90;;;;;;4883987;29;20218;-74
2023/04/11 12:44:02;;;;;;;3.17;1.20;;;13.00;99.90;;;;;;4886789;29;20249;-76
2023/04/11 12:46:32;;;;;;;3.33;1.37;;;12.90;99.90;;;;;;4912873;29;20182;-75
2023/04/11 12:49:00;;;;;;;3.23;1.60;;;13.30;99.90;;;;;;4911720;29;20240;-73
2023/04/11 12:51:28;;;;;;;4.23;1.63;;;13.20;99.90;;;;;;4915461;29;20277;-74
2023/04/11 12:53:57;;;;;;;4.13;1.30;;;13.10;99.20;;;;;;4895628;29;20218;-76
2023/04/11 12:56:25;;;;;;;4.30;1.20;;;13.10;97.50;;;;;;4882410;29;20681;-73
2023/04/11 12:58:54;;;;;;;4.43;1.40;;;12.70;98.60;;;;;;4882705;29;20242;-75
2023/04/11 13:01:23;;;;;;;4.40;1.80;;;12.90;99.30;;;;;;4882206;29;20796;-75
2023/04/11 13:03:51;;;;;;;3.43;1.40;;;12.90;99.40;;;;;;4882581;29;20214;-77
2023/04/11 13:06:21;;;;;;;4.07;1.43;;;12.90;97.90;;;;;;4882394;29;20285;-75